ABR weather

Aberdeen Regional Airport
Aberdeen, South Dakota, United States

Public forecast

Using degrees Fahrenheit for public forecast. Weather courtesy of forecast.io.

Current aviation weather report (METAR) for Aberdeen Regional Airport

Retrieved 2019/12/12 22:53 UTC (57 minutes ago):

KABR 122253Z AUTO 07006KT 10SM OVC028 M11/M15 A3004 RMK AO2 SLP200 T11111150

Aviation forecast (TAF) for Aberdeen Regional Airport

Retrieved 2019/12/12 18:39 UTC (5 hours ago):

TAF KABR 121736Z 1218/1318 36006KT P6SM OVC028 FM130500 VRB03KT P6SM VCSH OVC013 FM130900 17005KT P6SM OVC008 FM131700 21007KT P6SM OVC025